createdAt,value
2022-07-26T00:00:54.385Z,4.20
2022-07-26T00:05:56.458Z,5.57
2022-07-26T00:10:58.958Z,5.25
2022-07-26T00:16:02.918Z,9.50
2022-07-26T00:21:05.587Z,9.38
2022-07-26T00:26:09.057Z,12.43
2022-07-26T00:31:12.840Z,14.25
2022-07-26T00:36:14.935Z,8.80
2022-07-26T00:41:16.781Z,7.87
2022-07-26T00:46:19.207Z,12.38
2022-07-26T00:51:21.560Z,10.87
2022-07-26T00:56:23.582Z,8.83
2022-07-26T01:01:25.812Z,12.68
2022-07-26T01:06:28.120Z,14.80
2022-07-26T01:11:30.114Z,14.00
2022-07-26T01:16:32.358Z,12.27
2022-07-26T01:21:34.396Z,10.97
2022-07-26T01:26:36.357Z,11.93
2022-07-26T01:31:38.550Z,10.30
2022-07-26T01:36:40.594Z,10.52
2022-07-26T01:41:42.622Z,10.80
2022-07-26T01:46:44.437Z,10.80
2022-07-26T01:51:46.377Z,14.43
2022-07-26T01:56:48.346Z,11.35
2022-07-26T02:01:50.515Z,11.57
2022-07-26T02:06:52.663Z,16.27
2022-07-26T02:11:56.115Z,11.95
2022-07-26T02:17:00.146Z,12.13
2022-07-26T02:22:02.471Z,13.60
2022-07-26T02:27:05.466Z,11.95
2022-07-26T02:32:07.608Z,16.55
2022-07-26T02:37:09.839Z,9.55
2022-07-26T02:42:11.933Z,16.48
2022-07-26T02:47:13.952Z,16.58
2022-07-26T02:52:15.877Z,9.60
2022-07-26T02:57:17.796Z,11.27
2022-07-26T03:02:19.866Z,10.53
2022-07-26T03:07:21.872Z,10.15
2022-07-26T03:12:24.322Z,14.43
2022-07-26T03:17:26.483Z,19.58
2022-07-26T03:22:28.574Z,15.77
2022-07-26T03:27:30.621Z,14.05
2022-07-26T03:32:32.718Z,15.80
2022-07-26T03:37:45.031Z,12.50
2022-07-26T03:42:48.800Z,10.88
2022-07-26T03:47:50.803Z,17.93
2022-07-26T03:52:52.755Z,15.77
2022-07-26T03:57:54.772Z,18.42
2022-07-26T04:02:56.741Z,14.30
2022-07-26T04:07:58.641Z,20.73
2022-07-26T04:13:01.174Z,12.98
2022-07-26T04:18:03.408Z,17.17
2022-07-26T04:23:05.420Z,13.20
2022-07-26T04:28:14.424Z,14.80
2022-07-26T04:33:16.531Z,15.10
2022-07-26T04:38:18.638Z,11.98
2022-07-26T04:43:20.778Z,14.88
2022-07-26T04:48:22.980Z,17.15
2022-07-26T04:53:24.890Z,14.35
2022-07-26T04:58:27.126Z,20.15
2022-07-26T05:03:29.209Z,13.18
2022-07-26T05:08:31.292Z,16.87
2022-07-26T05:13:33.210Z,18.27
2022-07-26T05:18:48.923Z,16.30
2022-07-26T05:23:51.353Z,16.92
2022-07-26T05:28:54.297Z,13.20
2022-07-26T05:33:56.345Z,18.67
2022-07-26T05:38:58.391Z,20.02
2022-07-26T05:44:00.464Z,19.23
2022-07-26T05:49:02.382Z,15.00
2022-07-26T05:54:04.779Z,15.88
2022-07-26T05:59:07.772Z,13.07
2022-07-26T06:04:10.681Z,14.13
2022-07-26T06:09:12.910Z,14.40
2022-07-26T06:14:15.073Z,5.53
2022-07-26T06:19:17.428Z,13.18
2022-07-26T06:24:19.540Z,12.75
2022-07-26T06:29:21.869Z,9.82
2022-07-26T06:34:24.366Z,6.47
2022-07-26T06:39:26.487Z,10.85
2022-07-26T06:44:28.568Z,10.02
2022-07-26T06:49:30.769Z,6.32
2022-07-26T06:54:32.774Z,7.50
2022-07-26T06:59:35.175Z,11.90
2022-07-26T07:04:37.086Z,11.32
2022-07-26T07:09:39.205Z,9.07
2022-07-26T07:14:41.860Z,6.75
2022-07-26T07:19:43.670Z,8.18
2022-07-26T07:24:46.609Z,9.57
2022-07-26T07:29:48.815Z,11.65
2022-07-26T07:34:50.871Z,7.57
2022-07-26T07:39:52.903Z,11.90
2022-07-26T07:44:55.879Z,7.00
2022-07-26T07:49:58.510Z,8.50
2022-07-26T07:55:28.748Z,10.00
2022-07-26T08:00:33.044Z,10.82
2022-07-26T08:05:35.425Z,7.95
2022-07-26T08:10:51.873Z,8.20
2022-07-26T08:15:55.713Z,6.63
2022-07-26T08:20:58.026Z,7.10
2022-07-26T08:26:04.765Z,11.30
2022-07-26T08:31:08.830Z,9.55
2022-07-26T08:36:12.185Z,3.85
2022-07-26T08:41:14.192Z,7.20
2022-07-26T08:46:16.393Z,6.07
2022-07-26T08:51:22.688Z,7.97
2022-07-26T08:56:24.723Z,4.80
2022-07-26T09:01:27.227Z,5.68
2022-07-26T09:06:29.285Z,5.97
2022-07-26T09:11:33.081Z,5.72
2022-07-26T09:16:39.232Z,6.47
2022-07-26T09:21:42.310Z,6.75
2022-07-26T09:26:56.242Z,4.82
2022-07-26T09:32:18.871Z,7.18
2022-07-26T09:37:43.669Z,4.75
2022-07-26T09:43:03.918Z,5.60
2022-07-26T09:48:06.223Z,7.18
2022-07-26T09:53:10.791Z,3.03
2022-07-26T09:58:14.388Z,6.32
2022-07-26T10:03:16.760Z,8.18
2022-07-26T10:08:19.426Z,6.40
2022-07-26T10:13:22.685Z,3.60
2022-07-26T10:18:38.145Z,6.78
2022-07-26T10:23:46.241Z,6.80
2022-07-26T10:28:48.301Z,2.65
2022-07-26T10:33:51.849Z,4.47
2022-07-26T10:39:14.882Z,3.97
2022-07-26T10:44:20.182Z,3.28
2022-07-26T10:49:50.838Z,2.95
2022-07-26T10:54:56.548Z,3.83
2022-07-26T11:00:00.055Z,2.67
2022-07-26T11:05:05.082Z,3.22
2022-07-26T11:10:07.162Z,2.55
2022-07-26T11:15:19.213Z,2.60
2022-07-26T11:20:29.806Z,1.95
2022-07-26T11:25:32.189Z,2.10
2022-07-26T11:30:34.413Z,1.00
2022-07-26T11:35:36.538Z,1.17
2022-07-26T11:40:46.509Z,1.40
2022-07-26T11:45:52.596Z,3.00
2022-07-26T11:51:15.446Z,2.65
2022-07-26T11:56:23.311Z,1.17
2022-07-26T12:01:26.735Z,0.60
2022-07-26T12:06:29.030Z,0.80
2022-07-26T12:11:41.664Z,0.73
2022-07-26T12:16:47.532Z,0.55
2022-07-26T12:21:52.447Z,4.60
2022-07-26T12:27:21.741Z,0.60
2022-07-26T12:32:31.234Z,0.63
2022-07-26T12:37:40.531Z,2.85
2022-07-26T12:43:42.275Z,0.93
2022-07-26T12:48:52.678Z,1.05
2022-07-26T12:53:56.606Z,1.80
2022-07-26T12:59:02.141Z,3.03
2022-07-26T13:04:04.550Z,1.85
2022-07-26T13:09:06.578Z,1.02
2022-07-26T13:14:09.061Z,1.67
2022-07-26T13:19:11.776Z,1.63
2022-07-26T13:24:14.251Z,2.05
2022-07-26T13:29:19.406Z,1.70
2022-07-26T13:34:23.034Z,1.02
2022-07-26T13:39:26.053Z,2.45
2022-07-26T13:44:34.041Z,1.20
2022-07-26T13:49:35.948Z,1.33
2022-07-26T13:54:37.992Z,1.95
2022-07-26T13:59:40.027Z,2.67
2022-07-26T14:04:42.557Z,1.60
2022-07-26T14:09:44.486Z,4.35
2022-07-26T14:14:47.460Z,1.75
2022-07-26T14:19:50.844Z,1.88
2022-07-26T14:24:53.109Z,2.00
2022-07-26T14:29:55.004Z,5.20
2022-07-26T14:34:57.041Z,2.08
2022-07-26T14:39:59.100Z,3.50
2022-07-26T14:45:01.238Z,4.57
2022-07-26T14:50:06.872Z,4.25
2022-07-26T14:55:09.914Z,3.13
2022-07-26T15:00:17.258Z,2.88
2022-07-26T15:05:19.229Z,4.28
2022-07-26T15:10:38.940Z,4.03
2022-07-26T15:15:41.393Z,5.28
2022-07-26T15:20:43.693Z,5.65
2022-07-26T15:25:48.759Z,5.80
2022-07-26T15:30:51.230Z,3.97
2022-07-26T15:35:55.456Z,4.65
2022-07-26T15:40:57.463Z,5.03
2022-07-26T15:45:59.678Z,3.00
2022-07-26T15:51:01.931Z,4.28
2022-07-26T15:56:04.412Z,3.50
2022-07-26T16:01:06.740Z,3.65
2022-07-26T16:06:08.727Z,4.38
2022-07-26T16:11:10.777Z,3.55
2022-07-26T16:16:13.251Z,5.18
2022-07-26T16:21:15.198Z,5.53
2022-07-26T16:26:17.889Z,6.97
2022-07-26T16:31:20.292Z,5.63
2022-07-26T16:36:22.485Z,3.92
2022-07-26T16:41:24.335Z,4.80
2022-07-26T16:46:27.765Z,4.10
2022-07-26T16:51:30.491Z,5.72
2022-07-26T16:56:32.739Z,5.93
2022-07-26T17:01:34.784Z,5.50
2022-07-26T17:06:40.544Z,4.88
2022-07-26T17:11:43.138Z,6.97
2022-07-26T17:16:45.148Z,4.57
2022-07-26T17:21:47.281Z,5.90
2022-07-26T17:26:49.354Z,7.07
2022-07-26T17:31:51.295Z,3.00
2022-07-26T17:37:01.586Z,3.92
2022-07-26T17:42:06.968Z,7.95
2022-07-26T17:47:27.649Z,6.97
2022-07-26T17:52:30.822Z,8.18
2022-07-26T17:57:33.027Z,8.18
2022-07-26T18:02:34.958Z,4.55
2022-07-26T18:07:37.375Z,6.28
2022-07-26T18:12:39.425Z,6.65
2022-07-26T18:17:41.557Z,6.15
2022-07-26T18:22:45.740Z,6.32
2022-07-26T18:27:53.818Z,5.78
2022-07-26T18:32:56.385Z,9.07
2022-07-26T18:37:58.595Z,3.22
2022-07-26T18:43:01.089Z,6.80
2022-07-26T18:48:03.373Z,3.38
2022-07-26T18:53:05.909Z,4.47
2022-07-26T18:58:08.562Z,5.53
2022-07-26T19:03:10.767Z,5.45
2022-07-26T19:08:13.043Z,5.80
2022-07-26T19:13:14.941Z,6.03
2022-07-26T19:18:16.970Z,3.92
2022-07-26T19:23:18.996Z,9.95
2022-07-26T19:28:20.967Z,6.47
2022-07-26T19:33:23.038Z,4.88
2022-07-26T19:38:25.159Z,3.58
2022-07-26T19:43:28.742Z,3.22
2022-07-26T19:48:30.745Z,6.15
2022-07-26T19:53:32.638Z,5.75
2022-07-26T19:58:34.563Z,3.85
2022-07-26T20:03:39.732Z,4.60
2022-07-26T20:08:42.117Z,5.38
2022-07-26T20:13:44.861Z,7.43
2022-07-26T20:18:46.945Z,9.15
2022-07-26T20:23:49.109Z,4.70
2022-07-26T20:28:51.227Z,6.40
2022-07-26T20:33:53.913Z,8.07
2022-07-26T20:38:55.791Z,5.18
2022-07-26T20:43:57.904Z,5.05
2022-07-26T20:49:01.348Z,2.67
2022-07-26T20:54:03.903Z,3.60
2022-07-26T20:59:06.521Z,5.40
2022-07-26T21:04:08.721Z,5.13
2022-07-26T21:09:10.917Z,4.80
2022-07-26T21:14:13.414Z,2.27
2022-07-26T21:19:15.595Z,5.03
2022-07-26T21:24:17.940Z,3.85
2022-07-26T21:29:19.938Z,6.22
2022-07-26T21:34:22.447Z,4.43
2022-07-26T21:39:24.593Z,2.17
2022-07-26T21:44:28.155Z,2.70
2022-07-26T21:49:30.278Z,4.60
2022-07-26T21:54:33.242Z,2.27
2022-07-26T21:59:35.808Z,4.60
2022-07-26T22:04:38.017Z,4.90
2022-07-26T22:09:40.270Z,6.55
2022-07-26T22:14:42.144Z,2.33
2022-07-26T22:19:44.075Z,6.73
2022-07-26T22:24:46.270Z,3.60
2022-07-26T22:29:48.173Z,1.73
2022-07-26T22:34:51.206Z,5.13
2022-07-26T22:39:53.125Z,2.97
2022-07-26T22:44:54.961Z,7.17
2022-07-26T22:49:57.033Z,3.23
2022-07-26T22:54:58.897Z,3.70
2022-07-26T23:00:01.197Z,6.20
2022-07-26T23:05:03.905Z,4.30
2022-07-26T23:10:10.017Z,2.87
2022-07-26T23:15:12.510Z,6.47
2022-07-26T23:20:14.530Z,5.80
2022-07-26T23:25:16.547Z,5.67
2022-07-26T23:30:18.665Z,2.37
2022-07-26T23:35:21.361Z,5.33
2022-07-26T23:40:24.879Z,5.50
2022-07-26T23:45:26.892Z,9.13
2022-07-26T23:50:28.957Z,4.57
2022-07-26T23:55:35.777Z,7.03
